createdAt,value
2022-09-07T00:01:01.392Z,64.96
2022-09-07T00:03:28.957Z,64.78
2022-09-07T00:05:56.153Z,65.00
2022-09-07T00:08:27.156Z,64.86
2022-09-07T00:11:04.192Z,65.04
2022-09-07T00:13:35.290Z,65.58
2022-09-07T00:16:18.467Z,65.65
2022-09-07T00:18:46.452Z,65.63
2022-09-07T00:21:16.823Z,66.11
2022-09-07T00:23:44.106Z,66.44
2022-09-07T00:26:17.149Z,66.15
2022-09-07T00:28:45.073Z,66.42
2022-09-07T00:31:19.102Z,66.95
2022-09-07T00:33:49.015Z,66.39
2022-09-07T00:36:18.410Z,66.56
2022-09-07T00:38:51.524Z,66.61
2022-09-07T00:41:21.274Z,66.30
2022-09-07T00:43:58.429Z,67.10
2022-09-07T00:46:34.095Z,67.36
2022-09-07T00:49:20.278Z,67.39
2022-09-07T00:51:54.950Z,67.59
2022-09-07T00:54:47.075Z,67.45
2022-09-07T00:57:14.722Z,67.46
2022-09-07T00:59:52.866Z,67.44
2022-09-07T01:02:21.399Z,67.84
2022-09-07T01:04:59.830Z,67.44
2022-09-07T01:07:26.426Z,68.24
2022-09-07T01:09:55.538Z,67.81
2022-09-07T01:12:22.265Z,68.53
2022-09-07T01:14:52.914Z,68.33
2022-09-07T01:18:02.255Z,68.69
2022-09-07T01:20:40.343Z,68.90
2022-09-07T01:23:56.234Z,69.26
2022-09-07T01:26:56.872Z,69.20
2022-09-07T01:29:40.954Z,69.14
2022-09-07T01:32:19.702Z,69.43
2022-09-07T01:34:53.459Z,69.34
2022-09-07T01:37:35.683Z,69.63
2022-09-07T01:40:51.114Z,69.83
2022-09-07T01:43:48.235Z,69.82
2022-09-07T01:46:28.145Z,69.96
2022-09-07T01:49:04.617Z,70.08
2022-09-07T01:51:38.643Z,69.89
2022-09-07T01:54:22.433Z,69.77
2022-09-07T01:56:57.154Z,69.96
2022-09-07T01:59:39.340Z,70.30
2022-09-07T02:02:13.643Z,70.49
2022-09-07T02:05:00.140Z,70.67
2022-09-07T02:07:45.718Z,70.41
2022-09-07T02:10:27.054Z,70.50
2022-09-07T02:13:16.477Z,70.84
2022-09-07T02:16:01.670Z,70.29
2022-09-07T02:18:37.925Z,70.96
2022-09-07T02:21:09.203Z,71.02
2022-09-07T02:23:47.025Z,71.52
2022-09-07T02:26:22.206Z,71.99
2022-09-07T02:28:49.227Z,72.25
2022-09-07T02:31:16.478Z,72.48
2022-09-07T02:33:43.519Z,71.70
2022-09-07T02:36:16.202Z,71.68
2022-09-07T02:38:52.735Z,71.75
2022-09-07T02:41:37.316Z,71.76
2022-09-07T02:44:14.073Z,72.07
2022-09-07T02:46:52.961Z,72.22
2022-09-07T02:49:53.093Z,72.19
2022-09-07T02:52:41.610Z,72.04
2022-09-07T02:55:37.641Z,72.03
2022-09-07T02:58:26.252Z,72.44
2022-09-07T03:01:46.565Z,72.55
2022-09-07T03:04:48.125Z,72.33
2022-09-07T03:07:26.115Z,72.34
2022-09-07T03:09:57.641Z,71.95
2022-09-07T03:12:24.826Z,71.99
2022-09-07T03:14:51.467Z,72.00
2022-09-07T03:17:18.356Z,72.03
2022-09-07T03:19:45.007Z,72.02
2022-09-07T03:22:11.633Z,71.77
2022-09-07T03:24:38.298Z,72.13
2022-09-07T03:27:05.123Z,72.38
2022-09-07T03:29:31.737Z,72.61
2022-09-07T03:31:58.386Z,72.39
2022-09-07T03:34:25.096Z,72.52
2022-09-07T03:36:51.711Z,72.40
2022-09-07T03:39:32.316Z,72.83
2022-09-07T03:41:58.972Z,72.86
2022-09-07T03:44:25.661Z,72.91
2022-09-07T03:46:52.391Z,73.56
2022-09-07T03:49:19.096Z,72.84
2022-09-07T03:51:45.763Z,73.32
2022-09-07T03:54:12.455Z,72.94
2022-09-07T03:56:39.160Z,73.30
2022-09-07T03:59:05.788Z,72.85
2022-09-07T04:01:32.578Z,73.24
2022-09-07T04:04:02.701Z,73.23
2022-09-07T04:06:31.258Z,73.34
2022-09-07T04:09:03.414Z,73.58
2022-09-07T04:11:30.159Z,73.60
2022-09-07T04:13:57.035Z,73.52
2022-09-07T04:16:26.780Z,73.81
2022-09-07T04:18:59.183Z,73.63
2022-09-07T04:21:30.007Z,73.79
2022-09-07T04:23:57.867Z,73.64
2022-09-07T04:26:32.224Z,73.62
2022-09-07T04:29:01.179Z,73.89
2022-09-07T04:31:28.068Z,73.66
2022-09-07T04:33:56.130Z,73.45
2022-09-07T04:36:24.733Z,73.40
2022-09-07T04:38:59.787Z,73.81
2022-09-07T04:41:29.452Z,73.34
2022-09-07T04:43:59.616Z,73.17
2022-09-07T04:46:35.871Z,73.69
2022-09-07T04:49:10.447Z,73.11
2022-09-07T04:51:39.658Z,73.26
2022-09-07T04:54:07.002Z,73.91
2022-09-07T04:56:34.033Z,73.64
2022-09-07T04:59:04.557Z,73.46
2022-09-07T05:01:31.518Z,73.74
2022-09-07T05:04:01.435Z,73.32
2022-09-07T05:06:29.188Z,73.39
2022-09-07T05:08:58.002Z,73.25
2022-09-07T05:11:29.098Z,72.91
2022-09-07T05:13:58.890Z,73.43
2022-09-07T05:16:26.890Z,73.33
2022-09-07T05:19:01.745Z,74.09
2022-09-07T05:21:34.458Z,73.73
2022-09-07T05:24:02.382Z,73.70
2022-09-07T05:26:32.960Z,72.99
2022-09-07T05:31:52.149Z,72.69
2022-09-07T05:34:34.230Z,73.14
2022-09-07T05:37:01.729Z,72.55
2022-09-07T05:39:30.875Z,72.86
2022-09-07T05:41:57.639Z,72.80
2022-09-07T05:47:11.671Z,72.71
2022-09-07T05:49:38.310Z,72.73
2022-09-07T05:52:05.514Z,72.39
2022-09-07T05:54:32.308Z,72.56
2022-09-07T05:56:58.953Z,72.65
2022-09-07T05:59:25.574Z,72.66
2022-09-07T06:01:52.275Z,72.12
2022-09-07T06:04:19.601Z,72.36
2022-09-07T06:06:59.342Z,72.33
2022-09-07T06:09:33.198Z,72.58
2022-09-07T06:11:59.938Z,72.09
2022-09-07T06:14:26.560Z,71.92
2022-09-07T06:16:53.698Z,72.04
2022-09-07T06:19:20.408Z,72.13
2022-09-07T06:21:47.021Z,71.73
2022-09-07T06:24:13.747Z,71.69
2022-09-07T06:26:40.374Z,71.58
2022-09-07T06:29:07.061Z,71.58
2022-09-07T06:31:34.456Z,71.79
2022-09-07T06:34:01.167Z,71.97
2022-09-07T06:36:28.370Z,71.84
2022-09-07T06:38:59.068Z,71.19
2022-09-07T06:44:16.898Z,70.66
2022-09-07T06:49:30.270Z,71.43
2022-09-07T06:51:56.879Z,71.14
2022-09-07T06:57:10.250Z,70.84
2022-09-07T06:59:38.504Z,70.83
2022-09-07T07:02:07.061Z,70.93
2022-09-07T07:04:39.444Z,71.05
2022-09-07T07:07:11.753Z,71.77
2022-09-07T07:09:38.965Z,72.13
2022-09-07T07:12:05.694Z,72.39
2022-09-07T07:14:34.641Z,72.47
2022-09-07T07:17:02.307Z,72.35
2022-09-07T07:19:29.085Z,72.91
2022-09-07T07:22:29.500Z,72.67
2022-09-07T07:24:42.364Z,71.10
2022-09-07T07:27:08.969Z,70.42
2022-09-07T07:29:35.691Z,69.68
2022-09-07T07:32:02.633Z,70.14
2022-09-07T07:34:29.331Z,70.01
2022-09-07T07:36:55.995Z,70.63
2022-09-07T07:42:26.820Z,68.93
2022-09-07T07:47:40.128Z,66.04
2022-09-07T07:55:43.256Z,64.29
2022-09-07T07:58:10.319Z,63.50
2022-09-07T08:00:52.987Z,63.21
2022-09-07T08:03:21.563Z,63.96
2022-09-07T08:05:48.591Z,62.72
2022-09-07T08:08:15.623Z,63.04
2022-09-07T08:10:42.517Z,63.08
2022-09-07T08:13:09.272Z,63.07
2022-09-07T08:15:46.287Z,62.38
2022-09-07T08:18:17.522Z,62.25
2022-09-07T08:20:44.201Z,61.90
2022-09-07T08:23:11.617Z,61.61
2022-09-07T08:25:38.256Z,60.46
2022-09-07T08:28:05.519Z,60.55
2022-09-07T08:30:32.236Z,61.34
2022-09-07T08:32:58.781Z,60.56
2022-09-07T08:35:25.389Z,60.04
2022-09-07T08:37:51.955Z,59.43
2022-09-07T08:40:19.600Z,59.89
2022-09-07T08:43:01.026Z,57.88
2022-09-07T08:45:48.763Z,57.77
2022-09-07T08:48:23.670Z,57.51
2022-09-07T08:50:59.509Z,56.32
2022-09-07T08:53:29.105Z,56.84
2022-09-07T08:56:04.260Z,56.13
2022-09-07T08:58:53.211Z,56.78
2022-09-07T09:01:41.227Z,56.46
2022-09-07T09:04:25.697Z,54.94
2022-09-07T09:07:11.308Z,55.95
2022-09-07T09:10:08.906Z,53.57
2022-09-07T09:13:04.852Z,53.30
2022-09-07T09:15:46.902Z,53.38
2022-09-07T09:18:51.953Z,54.06
2022-09-07T09:21:20.038Z,53.89
2022-09-07T09:23:52.289Z,53.55
2022-09-07T09:26:32.355Z,53.47
2022-09-07T09:29:12.304Z,52.59
2022-09-07T09:31:39.227Z,50.90
2022-09-07T09:34:05.734Z,49.89
2022-09-07T09:36:40.317Z,49.25
2022-09-07T09:39:37.791Z,49.42
2022-09-07T09:42:10.300Z,49.77
2022-09-07T09:44:38.380Z,48.66
2022-09-07T09:49:54.038Z,49.20
2022-09-07T09:52:33.782Z,48.60
2022-09-07T09:55:30.577Z,48.20
2022-09-07T10:06:20.122Z,47.33
2022-09-07T10:08:59.213Z,46.80
2022-09-07T10:12:11.093Z,48.19
2022-09-07T10:14:47.252Z,47.79
2022-09-07T10:17:29.012Z,48.23
2022-09-07T10:20:22.256Z,48.67
2022-09-07T10:22:51.865Z,49.35
2022-09-07T10:25:30.680Z,48.80
2022-09-07T10:28:15.716Z,48.00
2022-09-07T10:31:04.070Z,47.32
2022-09-07T10:37:08.746Z,47.66
2022-09-07T10:39:41.488Z,47.93
2022-09-07T10:42:34.108Z,47.52
2022-09-07T10:45:18.935Z,47.39
2022-09-07T10:48:07.372Z,45.65
2022-09-07T10:50:56.782Z,45.99
2022-09-07T10:54:31.024Z,45.44
2022-09-07T10:57:16.086Z,45.76
2022-09-07T11:00:14.524Z,46.06
2022-09-07T11:03:27.900Z,46.41
2022-09-07T11:06:30.896Z,45.80
2022-09-07T11:09:31.480Z,45.85
2022-09-07T11:12:09.205Z,44.92
2022-09-07T11:14:55.949Z,45.21
2022-09-07T11:17:27.848Z,44.50
2022-09-07T11:20:21.527Z,44.40
2022-09-07T11:22:53.208Z,44.98
2022-09-07T11:25:43.930Z,45.06
2022-09-07T11:28:20.483Z,43.23
2022-09-07T11:31:00.390Z,44.14
2022-09-07T11:36:51.767Z,45.36
2022-09-07T11:39:51.309Z,45.63
2022-09-07T11:42:46.270Z,45.58
2022-09-07T11:45:21.251Z,45.87
2022-09-07T11:48:04.016Z,45.00
2022-09-07T11:50:39.268Z,45.22
2022-09-07T11:53:19.944Z,45.68
2022-09-07T11:55:55.274Z,45.12
2022-09-07T11:58:40.114Z,44.61
2022-09-07T12:01:21.903Z,45.18
2022-09-07T12:04:33.407Z,45.31
2022-09-07T12:07:50.337Z,45.10
2022-09-07T12:10:46.415Z,45.70
2022-09-07T12:14:00.439Z,44.34
2022-09-07T12:16:29.983Z,43.15
2022-09-07T12:19:27.319Z,43.70
2022-09-07T12:21:53.823Z,44.38
2022-09-07T12:24:49.896Z,43.79
2022-09-07T12:27:20.054Z,43.99
2022-09-07T12:30:18.614Z,43.15
2022-09-07T12:35:40.765Z,42.38
2022-09-07T12:38:13.587Z,42.21
2022-09-07T12:40:49.128Z,41.67
2022-09-07T12:43:15.661Z,41.96
2022-09-07T12:45:42.252Z,42.68
2022-09-07T12:48:14.883Z,42.21
2022-09-07T12:51:05.119Z,42.13
2022-09-07T12:54:02.966Z,41.38
2022-09-07T13:00:18.985Z,41.28
2022-09-07T13:09:39.517Z,42.50
2022-09-07T13:12:54.207Z,45.84
2022-09-07T13:16:03.784Z,42.57
2022-09-07T13:18:30.380Z,42.53
2022-09-07T13:21:09.082Z,41.23
2022-09-07T13:23:38.301Z,40.67
2022-09-07T13:26:13.187Z,40.20
2022-09-07T13:28:56.328Z,40.08
2022-09-07T13:32:09.545Z,39.03
2022-09-07T13:34:43.809Z,37.57
2022-09-07T13:37:22.890Z,36.41
2022-09-07T13:39:54.649Z,36.77
2022-09-07T13:42:36.465Z,34.10
2022-09-07T13:45:28.049Z,33.77
2022-09-07T13:48:14.057Z,31.96
2022-09-07T13:50:57.799Z,30.52
2022-09-07T13:53:46.656Z,30.81
2022-09-07T13:56:27.964Z,29.57
2022-09-07T13:58:55.573Z,28.47
2022-09-07T14:01:26.383Z,30.45
2022-09-07T14:04:00.299Z,30.07
2022-09-07T14:06:31.374Z,31.85
2022-09-07T14:09:21.904Z,31.74
2022-09-07T14:11:54.183Z,33.69
2022-09-07T14:14:32.972Z,35.36
2022-09-07T14:16:59.512Z,37.64
2022-09-07T14:19:41.189Z,36.78
2022-09-07T14:22:25.591Z,38.24
2022-09-07T14:24:58.886Z,37.82
2022-09-07T14:27:40.329Z,38.51
2022-09-07T14:30:28.301Z,39.13
2022-09-07T14:33:01.842Z,38.54
2022-09-07T14:35:33.809Z,38.29
2022-09-07T14:41:17.559Z,39.12
2022-09-07T14:44:00.186Z,35.97
2022-09-07T14:46:29.332Z,36.70
2022-09-07T14:49:00.554Z,34.70
2022-09-07T14:51:36.273Z,34.94
2022-09-07T14:54:08.129Z,34.90
2022-09-07T14:56:41.576Z,35.16
2022-09-07T14:59:43.682Z,35.89
2022-09-07T15:02:19.517Z,35.86
2022-09-07T15:04:49.319Z,36.16
2022-09-07T15:07:57.682Z,36.19
2022-09-07T15:10:25.455Z,35.90
2022-09-07T15:13:01.359Z,36.70
2022-09-07T15:15:33.741Z,35.92
2022-09-07T15:18:08.721Z,36.36
2022-09-07T15:20:44.265Z,35.74
2022-09-07T15:23:17.459Z,34.86
2022-09-07T15:25:51.067Z,33.14
2022-09-07T15:34:16.911Z,33.65
2022-09-07T15:36:49.318Z,33.34
2022-09-07T15:39:25.335Z,33.29
2022-09-07T15:41:52.515Z,33.34
2022-09-07T15:44:24.401Z,33.91
2022-09-07T15:49:43.494Z,33.97
2022-09-07T15:52:13.147Z,33.63
2022-09-07T15:54:40.075Z,33.76
2022-09-07T15:59:53.623Z,32.81
2022-09-07T16:05:07.831Z,33.57
2022-09-07T16:10:21.701Z,33.13
2022-09-07T16:13:10.676Z,33.85
2022-09-07T16:15:35.739Z,33.26
2022-09-07T16:18:04.639Z,33.59
2022-09-07T16:20:32.467Z,33.98
2022-09-07T16:23:15.954Z,34.18
2022-09-07T16:25:55.955Z,34.29
2022-09-07T16:28:22.966Z,36.07
2022-09-07T16:30:49.770Z,36.24
2022-09-07T16:33:16.817Z,35.52
2022-09-07T16:35:43.830Z,33.38
2022-09-07T16:40:58.104Z,35.21
2022-09-07T16:43:25.152Z,35.66
2022-09-07T16:46:06.717Z,33.95
2022-09-07T16:48:36.012Z,34.37
2022-09-07T16:51:04.946Z,35.51
2022-09-07T16:53:35.285Z,35.82
2022-09-07T16:56:07.240Z,35.81
2022-09-07T16:58:38.607Z,33.87
2022-09-07T17:01:08.641Z,36.29
2022-09-07T17:03:37.666Z,36.54
2022-09-07T17:06:09.700Z,36.81
2022-09-07T17:08:39.267Z,36.35
2022-09-07T17:11:15.933Z,37.13
2022-09-07T17:13:43.857Z,36.52
2022-09-07T17:16:20.498Z,37.10
2022-09-07T17:21:38.800Z,38.57
2022-09-07T17:24:08.615Z,38.06
2022-09-07T17:26:35.600Z,37.30
2022-09-07T17:29:02.687Z,38.34
2022-09-07T17:34:23.395Z,37.24
2022-09-07T17:36:50.196Z,38.33
2022-09-07T17:39:35.767Z,39.03
2022-09-07T17:42:21.318Z,39.55
2022-09-07T17:44:54.347Z,39.70
2022-09-07T17:47:21.098Z,40.02
2022-09-07T17:49:47.724Z,40.57
2022-09-07T17:52:14.342Z,40.76
2022-09-07T17:54:41.914Z,40.94
2022-09-07T17:57:08.580Z,40.99
2022-09-07T18:02:21.702Z,41.41
2022-09-07T18:04:49.183Z,41.74
2022-09-07T18:07:15.737Z,41.55
2022-09-07T18:09:42.294Z,42.01
2022-09-07T18:12:08.808Z,42.36
2022-09-07T18:14:35.388Z,42.41
2022-09-07T18:17:01.981Z,42.68
2022-09-07T18:19:28.595Z,42.63
2022-09-07T18:21:55.223Z,42.63
2022-09-07T18:24:24.076Z,42.34
2022-09-07T18:26:53.811Z,42.17
2022-09-07T18:29:30.048Z,43.11
2022-09-07T18:31:59.453Z,42.78
2022-09-07T18:34:26.439Z,43.32
2022-09-07T18:36:52.987Z,43.76
2022-09-07T18:39:20.624Z,43.45
2022-09-07T18:41:47.171Z,43.45
2022-09-07T18:47:01.013Z,43.75
2022-09-07T18:49:27.614Z,43.57
2022-09-07T18:54:43.588Z,44.03
2022-09-07T18:57:10.171Z,44.68
2022-09-07T18:59:36.759Z,45.22
2022-09-07T19:02:05.933Z,45.09
2022-09-07T19:07:21.267Z,46.11
2022-09-07T19:09:48.573Z,45.45
2022-09-07T19:12:15.617Z,45.50
2022-09-07T19:14:42.353Z,45.39
2022-09-07T19:17:10.865Z,45.99
2022-09-07T19:19:39.427Z,46.31
2022-09-07T19:22:06.261Z,46.31
2022-09-07T19:24:33.249Z,45.97
2022-09-07T19:27:01.177Z,46.25
2022-09-07T19:29:28.575Z,46.38
2022-09-07T19:32:04.179Z,46.70
2022-09-07T19:34:37.427Z,47.18
2022-09-07T19:37:06.060Z,47.14
2022-09-07T19:39:34.758Z,47.55
2022-09-07T19:42:04.372Z,47.53
2022-09-07T19:44:31.626Z,48.14
2022-09-07T19:46:58.605Z,48.22
2022-09-07T19:49:25.211Z,48.73
2022-09-07T19:51:52.145Z,49.03
2022-09-07T19:54:19.113Z,49.33
2022-09-07T19:56:45.979Z,50.25
2022-09-07T19:59:14.351Z,49.14
2022-09-07T20:01:45.856Z,49.45
2022-09-07T20:04:19.662Z,50.40
2022-09-07T20:06:49.595Z,49.68
2022-09-07T20:09:18.788Z,50.43
2022-09-07T20:11:47.401Z,50.86
2022-09-07T20:14:16.377Z,50.77
2022-09-07T20:16:43.229Z,51.62
2022-09-07T20:19:17.276Z,51.19
2022-09-07T20:21:43.829Z,51.49
2022-09-07T20:24:14.422Z,51.59
2022-09-07T20:26:41.099Z,51.00
2022-09-07T20:31:54.925Z,50.46
2022-09-07T20:34:21.523Z,50.81
2022-09-07T20:36:52.076Z,51.15
2022-09-07T20:39:25.689Z,52.38
2022-09-07T20:41:52.558Z,51.23
2022-09-07T20:44:19.219Z,52.48
2022-09-07T20:46:45.860Z,51.85
2022-09-07T20:49:12.478Z,53.25
2022-09-07T20:51:39.152Z,54.39
2022-09-07T20:54:06.785Z,54.31
2022-09-07T20:56:33.337Z,54.19
2022-09-07T20:59:02.656Z,54.68
2022-09-07T21:01:31.990Z,54.90
2022-09-07T21:04:00.629Z,54.93
2022-09-07T21:06:29.198Z,55.93
2022-09-07T21:08:57.998Z,56.69
2022-09-07T21:11:34.278Z,55.39
2022-09-07T21:14:08.183Z,56.23
2022-09-07T21:16:36.425Z,55.23
2022-09-07T21:19:07.225Z,53.30
2022-09-07T21:21:38.847Z,54.08
2022-09-07T21:24:14.389Z,53.48
2022-09-07T21:26:41.182Z,53.34
2022-09-07T21:29:07.718Z,54.77
2022-09-07T21:31:34.384Z,56.16
2022-09-07T21:34:02.431Z,56.16
2022-09-07T21:36:29.607Z,56.66
2022-09-07T21:38:56.219Z,56.68
2022-09-07T21:41:25.526Z,56.56
2022-09-07T21:43:57.036Z,56.86
2022-09-07T21:46:24.623Z,56.84
2022-09-07T21:48:51.419Z,56.77
2022-09-07T21:51:18.571Z,57.21
2022-09-07T21:53:45.229Z,56.80
2022-09-07T21:56:14.269Z,56.05
2022-09-07T21:58:41.657Z,56.67
2022-09-07T22:01:19.318Z,56.61
2022-09-07T22:03:53.920Z,55.34
2022-09-07T22:06:20.554Z,56.75
2022-09-07T22:08:47.087Z,57.10
2022-09-07T22:11:17.667Z,56.40
2022-09-07T22:13:45.675Z,56.89
2022-09-07T22:16:14.729Z,57.67
2022-09-07T22:18:46.222Z,57.69
2022-09-07T22:21:18.079Z,57.55
2022-09-07T22:23:48.568Z,57.63
2022-09-07T22:26:21.034Z,58.34
2022-09-07T22:28:48.467Z,58.66
2022-09-07T22:31:24.020Z,58.76
2022-09-07T22:33:52.700Z,58.31
2022-09-07T22:36:22.265Z,58.71
2022-09-07T22:38:55.167Z,58.12
2022-09-07T22:41:24.186Z,58.52
2022-09-07T22:43:51.367Z,58.63
2022-09-07T22:46:20.444Z,58.92
2022-09-07T22:48:47.652Z,58.53
2022-09-07T22:51:15.311Z,58.60
2022-09-07T22:53:43.299Z,57.81
2022-09-07T22:56:16.328Z,57.83
2022-09-07T22:58:48.279Z,57.44
2022-09-07T23:01:16.215Z,57.72
2022-09-07T23:03:43.986Z,57.44
2022-09-07T23:06:26.866Z,57.02
2022-09-07T23:08:56.110Z,57.67
2022-09-07T23:11:24.574Z,57.19
2022-09-07T23:13:56.957Z,56.42
2022-09-07T23:16:24.746Z,57.65
2022-09-07T23:18:51.989Z,57.53
2022-09-07T23:21:18.849Z,58.64
2022-09-07T23:23:53.677Z,59.31
2022-09-07T23:26:22.317Z,59.24
2022-09-07T23:28:54.407Z,60.53
2022-09-07T23:31:22.343Z,60.26
2022-09-07T23:33:49.503Z,60.19
2022-09-07T23:36:17.711Z,60.18
2022-09-07T23:39:00.540Z,59.28
2022-09-07T23:41:27.669Z,59.39
2022-09-07T23:43:55.368Z,59.76
2022-09-07T23:46:22.811Z,59.74
2022-09-07T23:48:50.378Z,60.42
2022-09-07T23:51:22.741Z,59.42
2022-09-07T23:53:50.656Z,59.15
2022-09-07T23:56:17.379Z,59.63
2022-09-07T23:58:44.004Z,59.31
